createdAt,value
2018-06-16T00:02:09.246Z,13.10
2018-06-16T00:04:41.195Z,13.20
2018-06-16T00:07:09.621Z,13.20
2018-06-16T00:09:40.274Z,13.30
2018-06-16T00:12:09.943Z,13.30
2018-06-16T00:14:39.671Z,13.10
2018-06-16T00:17:08.435Z,13.10
2018-06-16T00:19:41.732Z,12.90
2018-06-16T00:22:11.505Z,12.90
2018-06-16T00:24:40.184Z,12.90
2018-06-16T00:27:08.584Z,12.90
2018-06-16T00:29:37.364Z,12.70
2018-06-16T00:32:07.921Z,12.70
2018-06-16T00:34:36.254Z,12.70
2018-06-16T00:37:04.589Z,13.00
2018-06-16T00:42:02.344Z,13.20
2018-06-16T00:44:31.428Z,13.20
2018-06-16T00:47:01.700Z,13.20
2018-06-16T00:49:30.112Z,13.10
2018-06-16T00:51:58.788Z,13.20
2018-06-16T00:54:32.005Z,13.20
2018-06-16T00:57:06.050Z,13.10
2018-06-16T00:59:34.916Z,13.00
2018-06-16T01:02:03.309Z,12.90
2018-06-16T01:04:31.699Z,12.90
2018-06-16T01:07:00.369Z,12.70
2018-06-16T01:09:28.809Z,12.70
2018-06-16T01:11:57.234Z,12.70
2018-06-16T01:14:27.576Z,12.80
2018-06-16T01:16:55.950Z,13.00
2018-06-16T01:19:24.296Z,13.10
2018-06-16T01:22:02.272Z,13.20
2018-06-16T01:24:30.629Z,13.20
2018-06-16T01:27:00.697Z,13.10
2018-06-16T01:29:30.125Z,13.20
2018-06-16T01:31:58.499Z,13.20
2018-06-16T01:34:26.883Z,13.20
2018-06-16T01:37:00.990Z,13.10
2018-06-16T01:39:29.425Z,13.20
2018-06-16T01:42:03.365Z,13.10
2018-06-16T01:44:31.688Z,13.00
2018-06-16T01:49:27.994Z,13.00
2018-06-16T01:51:56.291Z,13.00
2018-06-16T01:54:24.637Z,13.00
2018-06-16T01:56:52.973Z,13.00
2018-06-16T01:59:21.316Z,12.90
2018-06-16T02:01:49.688Z,12.90
2018-06-16T02:04:18.032Z,13.00
2018-06-16T02:06:46.369Z,13.00
2018-06-16T02:09:14.791Z,12.90
2018-06-16T02:11:43.663Z,12.90
2018-06-16T02:14:12.051Z,12.80
2018-06-16T02:16:40.528Z,12.90
2018-06-16T02:19:09.913Z,12.90
2018-06-16T02:21:38.220Z,12.80
2018-06-16T02:24:06.588Z,12.80
2018-06-16T02:26:35.378Z,12.90
2018-06-16T02:29:03.760Z,12.90
2018-06-16T02:31:32.136Z,12.70
2018-06-16T02:34:00.669Z,12.70
2018-06-16T02:36:29.051Z,12.50
2018-06-16T02:38:58.215Z,12.60
2018-06-16T02:41:26.567Z,12.50
2018-06-16T02:43:54.914Z,12.50
2018-06-16T02:46:23.277Z,12.70
2018-06-16T02:48:52.158Z,12.70
2018-06-16T02:51:20.635Z,12.60
2018-06-16T02:53:48.983Z,12.70
2018-06-16T02:56:17.391Z,12.60
2018-06-16T02:58:45.775Z,12.60
2018-06-16T03:01:14.144Z,12.60
2018-06-16T03:03:42.519Z,12.60
2018-06-16T03:06:10.905Z,12.60
2018-06-16T03:08:39.291Z,12.60
2018-06-16T03:11:07.654Z,12.60
2018-06-16T03:13:36.018Z,12.60
2018-06-16T03:16:04.371Z,12.40
2018-06-16T03:18:33.090Z,12.40
2018-06-16T03:21:01.492Z,12.50
2018-06-16T03:23:29.939Z,12.60
2018-06-16T03:25:58.776Z,12.60
2018-06-16T03:30:55.077Z,12.70
2018-06-16T03:33:23.957Z,12.70
2018-06-16T03:35:52.327Z,12.70
2018-06-16T03:38:20.706Z,12.90
2018-06-16T03:40:49.395Z,12.80
2018-06-16T03:43:17.741Z,12.60
2018-06-16T03:48:17.739Z,12.70
2018-06-16T03:50:46.535Z,12.80
2018-06-16T03:53:15.414Z,12.80
2018-06-16T03:55:44.193Z,12.90
2018-06-16T03:58:12.570Z,12.80
2018-06-16T04:00:40.941Z,12.80
2018-06-16T04:03:09.658Z,12.80
2018-06-16T04:05:38.072Z,12.80
2018-06-16T04:08:06.455Z,12.90
2018-06-16T04:10:35.599Z,13.00
2018-06-16T04:13:03.979Z,13.10
2018-06-16T04:15:32.493Z,13.20
2018-06-16T04:18:00.879Z,13.20
2018-06-16T04:20:29.321Z,13.30
2018-06-16T04:22:57.846Z,13.20
2018-06-16T04:25:26.588Z,13.30
2018-06-16T04:27:55.034Z,13.30
2018-06-16T04:30:23.466Z,13.30
2018-06-16T04:32:52.122Z,13.40
2018-06-16T04:35:20.578Z,13.60
2018-06-16T04:37:49.150Z,13.60
2018-06-16T04:40:18.974Z,13.80
2018-06-16T04:42:48.411Z,13.90
2018-06-16T04:45:16.810Z,14.20
2018-06-16T04:47:45.593Z,15.80
2018-06-16T04:50:14.262Z,17.70
2018-06-16T04:52:43.808Z,18.60
2018-06-16T04:57:40.583Z,20.00
2018-06-16T05:00:09.016Z,20.50
2018-06-16T05:02:38.716Z,20.80
2018-06-16T05:05:07.109Z,20.30
2018-06-16T05:07:35.678Z,19.90
2018-06-16T05:10:04.591Z,19.30
2018-06-16T05:12:32.954Z,19.00
2018-06-16T05:15:01.355Z,18.40
2018-06-16T05:19:58.316Z,16.90
2018-06-16T05:22:26.727Z,16.90
2018-06-16T05:24:55.729Z,16.80
2018-06-16T05:27:24.166Z,16.70
2018-06-16T05:32:20.885Z,16.60
2018-06-16T05:34:49.304Z,16.70
2018-06-16T05:39:46.514Z,17.60
2018-06-16T05:42:14.934Z,17.90
2018-06-16T05:44:43.330Z,17.70
2018-06-16T05:47:12.118Z,17.20
2018-06-16T05:52:08.489Z,17.00
2018-06-16T05:54:36.923Z,17.20
2018-06-16T05:57:05.334Z,17.50
2018-06-16T05:59:33.741Z,18.80
2018-06-16T06:02:02.574Z,20.60
2018-06-16T06:04:31.362Z,21.70
2018-06-16T06:06:59.717Z,20.80
2018-06-16T06:09:28.423Z,20.50
2018-06-16T06:11:56.837Z,20.10
2018-06-16T06:14:25.440Z,20.10
2018-06-16T06:16:54.174Z,21.70
2018-06-16T06:19:22.575Z,23.30
2018-06-16T06:21:51.244Z,24.20
2018-06-16T06:24:21.623Z,24.40
2018-06-16T06:26:51.238Z,24.80
2018-06-16T06:29:19.598Z,25.60
2018-06-16T06:31:48.882Z,26.10
2018-06-16T06:34:17.285Z,26.30
2018-06-16T06:36:47.199Z,25.90
2018-06-16T06:39:15.882Z,25.60
2018-06-16T06:41:44.264Z,25.50
2018-06-16T06:44:12.680Z,26.30
2018-06-16T06:46:41.578Z,27.20
2018-06-16T06:49:10.071Z,27.90
2018-06-16T06:51:38.399Z,28.60
2018-06-16T06:54:07.191Z,28.50
2018-06-16T06:56:35.739Z,28.60
2018-06-16T07:01:32.769Z,29.10
2018-06-16T07:04:02.128Z,28.30
2018-06-16T07:06:30.502Z,27.40
2018-06-16T07:08:59.336Z,25.40
2018-06-16T07:11:27.764Z,24.50
2018-06-16T07:13:56.327Z,25.60
2018-06-16T07:18:54.283Z,26.20
2018-06-16T07:21:22.795Z,26.40
2018-06-16T07:23:55.533Z,26.60
2018-06-16T07:26:24.163Z,27.70
2018-06-16T07:28:52.758Z,26.40
2018-06-16T07:31:21.566Z,26.50
2018-06-16T07:33:50.118Z,25.30
2018-06-16T07:41:59.474Z,27.20
2018-06-16T07:44:29.843Z,29.50
2018-06-16T07:46:58.284Z,31.40
2018-06-16T07:49:26.688Z,31.70
2018-06-16T07:51:55.570Z,32.60
2018-06-16T07:56:52.191Z,29.00
2018-06-16T08:01:49.054Z,32.80
2018-06-16T08:04:18.409Z,28.80
2018-06-16T08:06:46.876Z,29.10
2018-06-16T08:09:15.306Z,26.10
2018-06-16T08:11:46.547Z,27.30
2018-06-16T08:14:16.104Z,28.60
2018-06-16T08:16:44.508Z,26.50
2018-06-16T08:19:13.031Z,25.40
2018-06-16T08:21:41.905Z,26.90
2018-06-16T08:24:10.689Z,27.90
2018-06-16T08:26:52.177Z,28.60
2018-06-16T08:29:21.079Z,28.00
2018-06-16T08:31:49.498Z,28.40
2018-06-16T08:34:30.659Z,28.80
2018-06-16T08:39:27.467Z,27.60
2018-06-16T08:41:55.932Z,28.80
2018-06-16T08:44:26.211Z,29.10
2018-06-16T08:46:54.594Z,29.80
2018-06-16T08:49:23.080Z,29.60
2018-06-16T08:52:17.789Z,31.00
2018-06-16T08:54:50.413Z,30.60
2018-06-16T08:57:18.872Z,29.10
2018-06-16T08:59:47.798Z,29.20
2018-06-16T09:02:25.523Z,27.90
2018-06-16T09:07:22.460Z,29.30
2018-06-16T09:09:50.843Z,30.90
2018-06-16T09:12:19.654Z,30.90
2018-06-16T09:17:16.511Z,31.00
2018-06-16T09:19:45.337Z,30.40
2018-06-16T09:22:14.062Z,31.40
2018-06-16T09:24:42.488Z,28.50
2018-06-16T09:27:11.204Z,29.00
2018-06-16T09:29:40.082Z,28.30
2018-06-16T09:32:09.587Z,28.90
2018-06-16T09:34:41.079Z,29.60
2018-06-16T09:37:09.495Z,30.10
2018-06-16T09:39:41.507Z,28.90
2018-06-16T09:42:15.385Z,27.90
2018-06-16T09:44:46.114Z,26.90
2018-06-16T09:47:17.674Z,25.50
2018-06-16T09:49:47.549Z,25.90
2018-06-16T09:52:17.582Z,25.30
2018-06-16T09:54:52.137Z,26.60
2018-06-16T09:57:23.908Z,25.10
2018-06-16T09:59:53.869Z,24.00
2018-06-16T10:02:22.256Z,23.80
2018-06-16T10:07:19.301Z,23.80
2018-06-16T10:09:48.489Z,24.50
2018-06-16T10:12:18.524Z,24.30
2018-06-16T10:14:48.587Z,23.50
2018-06-16T10:19:45.594Z,23.30
2018-06-16T10:22:15.834Z,23.00
2018-06-16T10:24:46.333Z,23.70
2018-06-16T10:27:15.467Z,23.10
2018-06-16T10:29:48.832Z,23.40
2018-06-16T10:34:59.310Z,25.20
2018-06-16T10:37:27.787Z,25.50
2018-06-16T10:39:56.721Z,25.00
2018-06-16T10:42:26.230Z,23.80
2018-06-16T10:45:00.043Z,24.10
2018-06-16T10:47:28.533Z,23.30
2018-06-16T10:49:58.962Z,23.90
2018-06-16T10:52:30.509Z,25.10
2018-06-16T10:55:00.327Z,25.10
2018-06-16T10:57:28.860Z,24.20
2018-06-16T11:00:00.499Z,24.00
2018-06-16T11:05:24.361Z,25.50
2018-06-16T11:07:53.186Z,25.70
2018-06-16T11:10:21.554Z,27.50
2018-06-16T11:12:50.022Z,26.40
2018-06-16T11:15:18.850Z,26.50
2018-06-16T11:17:47.990Z,26.40
2018-06-16T11:20:16.366Z,26.40
2018-06-16T11:22:45.671Z,28.10
2018-06-16T11:25:14.110Z,27.50
2018-06-16T11:27:42.551Z,28.00
2018-06-16T11:30:11.357Z,27.90
2018-06-16T11:32:39.731Z,26.40
2018-06-16T11:35:08.168Z,26.10
2018-06-16T11:37:37.265Z,25.70
2018-06-16T11:40:05.892Z,24.40
2018-06-16T11:42:34.360Z,24.60
2018-06-16T11:45:04.785Z,24.80
2018-06-16T11:47:33.238Z,24.60
2018-06-16T11:50:01.646Z,24.40
2018-06-16T11:54:58.719Z,24.10
2018-06-16T11:59:55.320Z,23.80
2018-06-16T12:02:23.743Z,24.00
2018-06-16T12:04:52.402Z,23.90
2018-06-16T12:07:20.823Z,24.40
2018-06-16T12:09:49.274Z,23.80
2018-06-16T12:12:17.785Z,24.00
2018-06-16T12:14:46.566Z,24.30
2018-06-16T12:17:15.050Z,24.10
2018-06-16T12:19:43.629Z,24.20
2018-06-16T12:22:12.649Z,24.10
2018-06-16T12:24:42.095Z,24.60
2018-06-16T12:27:10.719Z,24.90
2018-06-16T12:29:39.644Z,25.10
2018-06-16T12:32:08.055Z,24.90
2018-06-16T12:34:36.732Z,24.50
2018-06-16T12:37:05.386Z,24.80
2018-06-16T12:39:33.852Z,25.10
2018-06-16T12:42:12.955Z,25.50
2018-06-16T12:44:41.804Z,24.30
2018-06-16T12:47:10.313Z,24.90
2018-06-16T12:49:38.796Z,25.00
2018-06-16T12:52:07.648Z,24.20
2018-06-16T12:59:39.793Z,24.30
2018-06-16T13:02:08.863Z,24.50
2018-06-16T13:04:37.275Z,24.30
2018-06-16T13:07:06.920Z,24.10
2018-06-16T13:09:35.479Z,24.50
2018-06-16T13:12:04.626Z,25.00
2018-06-16T13:14:33.359Z,25.30
2018-06-16T13:17:01.748Z,25.20
2018-06-16T13:19:30.639Z,24.90
2018-06-16T13:21:59.468Z,24.80
2018-06-16T13:26:55.868Z,24.50
2018-06-16T13:29:24.535Z,24.40
2018-06-16T13:31:52.941Z,24.10
2018-06-16T13:34:22.180Z,24.50
2018-06-16T13:36:51.151Z,25.00
2018-06-16T13:41:47.535Z,25.00
2018-06-16T13:44:16.396Z,24.60
2018-06-16T13:49:14.280Z,24.30
2018-06-16T13:51:43.108Z,24.60
2018-06-16T13:54:24.931Z,24.70
2018-06-16T13:56:55.566Z,25.00
2018-06-16T13:59:25.162Z,24.90
2018-06-16T14:01:54.358Z,24.70
2018-06-16T14:04:23.167Z,24.70
2018-06-16T14:06:51.598Z,24.20
2018-06-16T14:09:20.064Z,24.50
2018-06-16T14:11:49.039Z,24.60
2018-06-16T14:14:17.468Z,24.90
2018-06-16T14:16:46.004Z,25.00
2018-06-16T14:19:15.066Z,25.30
2018-06-16T14:21:45.183Z,25.20
2018-06-16T14:24:13.589Z,24.90
2018-06-16T14:29:11.370Z,24.80
2018-06-16T14:34:08.308Z,25.20
2018-06-16T14:36:36.839Z,25.40
2018-06-16T14:39:06.573Z,25.70
2018-06-16T14:41:36.261Z,25.30
2018-06-16T14:44:04.812Z,25.30
2018-06-16T14:46:33.289Z,25.50
2018-06-16T14:49:02.103Z,25.10
2018-06-16T14:53:58.749Z,25.30
2018-06-16T14:56:27.577Z,25.50
2018-06-16T14:58:55.940Z,25.40
2018-06-16T15:01:24.317Z,25.50
2018-06-16T15:03:53.077Z,25.40
2018-06-16T15:06:21.570Z,25.10
2018-06-16T15:08:50.128Z,24.60
2018-06-16T15:11:19.131Z,24.40
2018-06-16T15:14:04.601Z,24.60
2018-06-16T15:16:33.663Z,24.60
2018-06-16T15:22:02.802Z,24.40
2018-06-16T15:24:31.227Z,24.70
2018-06-16T15:26:59.675Z,24.70
2018-06-16T15:29:30.158Z,24.70
2018-06-16T15:31:59.275Z,24.70
2018-06-16T15:34:27.855Z,24.60
2018-06-16T15:37:01.432Z,24.30
2018-06-16T15:39:31.568Z,24.40
2018-06-16T15:41:59.957Z,24.60
2018-06-16T15:44:28.472Z,24.50
2018-06-16T15:49:26.584Z,24.20
2018-06-16T15:52:22.223Z,24.30
2018-06-16T15:55:05.157Z,24.50
2018-06-16T15:57:33.894Z,24.50
2018-06-16T16:00:02.347Z,24.30
2018-06-16T16:04:59.879Z,24.40
2018-06-16T16:07:28.398Z,24.40
2018-06-16T16:09:57.583Z,24.50
2018-06-16T16:12:26.064Z,24.40
2018-06-16T16:14:57.606Z,24.10
2018-06-16T16:17:26.011Z,24.00
2018-06-16T16:19:54.562Z,24.00
2018-06-16T16:22:22.954Z,24.00
2018-06-16T16:24:52.272Z,24.10
2018-06-16T16:27:21.615Z,24.10
2018-06-16T16:29:50.014Z,24.10
2018-06-16T16:32:18.397Z,24.20
2018-06-16T16:34:47.198Z,24.10
2018-06-16T16:37:15.646Z,24.20
2018-06-16T16:39:44.039Z,23.90
2018-06-16T16:42:12.858Z,23.80
2018-06-16T16:44:41.450Z,23.80
2018-06-16T16:47:09.909Z,24.00
2018-06-16T16:49:41.725Z,23.90
2018-06-16T16:52:10.472Z,23.90
2018-06-16T16:54:42.174Z,23.90
2018-06-16T16:57:11.871Z,23.70
2018-06-16T16:59:40.658Z,23.60
2018-06-16T17:04:40.565Z,23.70
2018-06-16T17:07:08.946Z,23.80
2018-06-16T17:09:37.524Z,23.70
2018-06-16T17:12:06.423Z,23.70
2018-06-16T17:14:35.441Z,23.60
2018-06-16T17:17:03.826Z,23.70
2018-06-16T17:19:32.291Z,23.60
2018-06-16T17:22:01.933Z,23.60
2018-06-16T17:24:30.309Z,23.50
2018-06-16T17:26:59.035Z,23.50
2018-06-16T17:29:27.421Z,23.40
2018-06-16T17:31:55.806Z,23.40
2018-06-16T17:34:24.231Z,23.30
2018-06-16T17:36:52.669Z,23.30
2018-06-16T17:39:21.018Z,23.30
2018-06-16T17:41:49.710Z,23.20
2018-06-16T17:44:18.092Z,23.00
2018-06-16T17:46:46.547Z,23.00
2018-06-16T17:51:44.189Z,23.00
2018-06-16T17:54:12.667Z,22.90
2018-06-16T17:56:41.477Z,22.80
2018-06-16T17:59:09.831Z,22.80
2018-06-16T18:01:38.290Z,22.70
2018-06-16T18:04:07.154Z,22.60
2018-06-16T18:06:35.546Z,22.40
2018-06-16T18:09:05.970Z,22.10
2018-06-16T18:11:34.743Z,22.00
2018-06-16T18:14:03.261Z,21.90
2018-06-16T18:16:31.633Z,21.80
2018-06-16T18:19:00.473Z,21.80
2018-06-16T18:21:29.014Z,21.50
2018-06-16T18:23:57.525Z,21.40
2018-06-16T18:26:26.707Z,21.40
2018-06-16T18:31:24.906Z,21.30
2018-06-16T18:33:53.682Z,21.10
2018-06-16T18:36:22.100Z,21.10
2018-06-16T18:38:51.186Z,20.80
2018-06-16T18:41:20.043Z,20.90
2018-06-16T18:43:48.514Z,20.80
2018-06-16T18:46:30.216Z,20.90
2018-06-16T18:48:58.610Z,20.80
2018-06-16T18:51:26.978Z,20.50
2018-06-16T18:54:04.680Z,20.40
2018-06-16T18:56:46.807Z,20.30
2018-06-16T18:59:15.637Z,20.20
2018-06-16T19:01:44.006Z,20.10
2018-06-16T19:04:12.833Z,20.10
2018-06-16T19:09:09.602Z,19.50
2018-06-16T19:11:38.677Z,19.50
2018-06-16T19:14:07.142Z,19.60
2018-06-16T19:16:37.830Z,19.40
2018-06-16T19:19:06.612Z,19.20
2018-06-16T19:21:34.999Z,19.30
2018-06-16T19:24:18.974Z,19.30
2018-06-16T19:26:47.778Z,19.20
2018-06-16T19:29:16.162Z,19.20
2018-06-16T19:31:44.560Z,19.10
2018-06-16T19:34:13.195Z,18.70
2018-06-16T19:36:41.608Z,18.70
2018-06-16T19:39:11.463Z,18.80
2018-06-16T19:41:39.888Z,18.30
2018-06-16T19:44:09.103Z,18.10
2018-06-16T19:46:37.679Z,18.30
2018-06-16T19:51:35.191Z,18.50
2018-06-16T19:54:18.486Z,18.60
2018-06-16T19:56:48.428Z,18.50
2018-06-16T19:59:16.779Z,18.40
2018-06-16T20:01:45.169Z,18.30
2018-06-16T20:06:41.928Z,18.10
2018-06-16T20:09:10.287Z,17.80
2018-06-16T20:11:39.063Z,17.70
2018-06-16T20:14:07.476Z,17.80
2018-06-16T20:19:04.187Z,17.80
2018-06-16T20:21:32.583Z,17.70
2018-06-16T20:24:00.943Z,17.70
2018-06-16T20:26:29.352Z,17.70
2018-06-16T20:28:57.662Z,17.40
2018-06-16T20:31:26.400Z,17.10
2018-06-16T20:33:54.847Z,17.20
2018-06-16T20:36:23.272Z,17.10
2018-06-16T20:38:52.151Z,17.20
2018-06-16T20:41:20.494Z,17.20
2018-06-16T20:43:48.886Z,17.20
2018-06-16T20:46:17.591Z,17.10
2018-06-16T20:48:45.950Z,17.10
2018-06-16T20:51:14.362Z,16.60
2018-06-16T20:56:11.062Z,16.80
2018-06-16T20:58:40.090Z,16.90
2018-06-16T21:01:08.750Z,16.90
2018-06-16T21:03:37.130Z,16.80
2018-06-16T21:06:05.498Z,17.00
2018-06-16T21:08:33.924Z,16.90
2018-06-16T21:11:02.359Z,16.80
2018-06-16T21:13:31.046Z,16.70
2018-06-16T21:15:59.466Z,16.80
2018-06-16T21:18:27.858Z,16.80
2018-06-16T21:23:24.520Z,16.40
2018-06-16T21:25:53.043Z,16.40
2018-06-16T21:28:21.778Z,16.50
2018-06-16T21:30:50.217Z,16.50
2018-06-16T21:33:18.591Z,16.40
2018-06-16T21:35:47.379Z,16.30
2018-06-16T21:38:16.082Z,16.30
2018-06-16T21:40:44.523Z,16.20
2018-06-16T21:43:13.187Z,16.30
2018-06-16T21:45:41.575Z,16.30
2018-06-16T21:48:10.809Z,16.30
2018-06-16T21:50:39.927Z,16.30
2018-06-16T21:53:08.419Z,16.30
2018-06-16T21:55:36.950Z,16.30
2018-06-16T21:58:06.230Z,16.30
2018-06-16T22:00:35.977Z,16.10
2018-06-16T22:03:05.660Z,16.10
2018-06-16T22:13:04.635Z,16.20
2018-06-16T22:15:33.306Z,16.10
2018-06-16T22:18:01.683Z,15.90
2018-06-16T22:20:30.527Z,15.90
2018-06-16T22:22:59.052Z,15.90
2018-06-16T22:25:28.943Z,15.90
2018-06-16T22:27:59.303Z,16.00
2018-06-16T22:30:30.384Z,15.90
2018-06-16T22:32:58.765Z,15.90
2018-06-16T22:35:27.435Z,15.90
2018-06-16T22:37:55.804Z,15.90
2018-06-16T22:40:24.221Z,15.90
2018-06-16T22:42:52.931Z,15.90
2018-06-16T22:45:21.337Z,15.80
2018-06-16T22:47:49.683Z,15.80
2018-06-16T22:50:18.678Z,15.80
2018-06-16T22:52:47.071Z,15.70
2018-06-16T22:55:15.434Z,15.70
2018-06-16T22:57:44.111Z,15.70
2018-06-16T23:00:14.183Z,15.70
2018-06-16T23:02:42.348Z,15.60
2018-06-16T23:05:14.274Z,15.50
2018-06-16T23:07:42.712Z,15.60
2018-06-16T23:10:11.078Z,15.40
2018-06-16T23:12:39.856Z,15.40
2018-06-16T23:15:08.245Z,15.30
2018-06-16T23:17:36.629Z,15.40
2018-06-16T23:20:05.418Z,15.40
2018-06-16T23:22:34.024Z,15.50
2018-06-16T23:25:02.444Z,15.50
2018-06-16T23:27:31.130Z,15.40
2018-06-16T23:29:59.494Z,15.40
2018-06-16T23:32:27.881Z,15.20
2018-06-16T23:34:56.569Z,15.00
2018-06-16T23:37:24.925Z,14.90
2018-06-16T23:39:53.425Z,15.00
2018-06-16T23:42:22.394Z,15.00
2018-06-16T23:44:50.734Z,14.90
2018-06-16T23:47:19.231Z,15.10
2018-06-16T23:52:16.122Z,15.20
2018-06-16T23:54:44.879Z,15.30
2018-06-16T23:57:13.745Z,15.20
2018-06-16T23:59:42.163Z,14.90
